Time;durP1;ratioP1;P1;durP2;ratioP2;P2;SDS_P1;SDS_P2;PMS_P1;PMS_P2;Temp;Humidity;BMP_temperature;BMP_pressure;BME280_temperature;BME280_humidity;BME280_pressure;Samples;Min_cycle;Max_cycle;Signal;HPM_P1;HPM_P2
2023/08/27 00:00:05;;;;;;;;;;;;;;;;;;4895085;28;98123;-80
2023/08/27 00:02:38;;;;;;;;;;;;;;;;;;4900787;28;92401;-80
2023/08/27 00:05:07;;;;;;;;;;;;;;;;;;4904588;28;92185;-80
2023/08/27 00:07:35;;;;;;;;;;;;;;;;;;4915052;28;119915;-80
2023/08/27 00:10:01;;;;;;;;;;;;;;;;;;4914045;28;123213;-80
2023/08/27 00:12:28;;;;;;;;;;;;;;;;;;4902695;28;122406;-79
2023/08/27 00:14:54;;;;;;;;;;;;;;;;;;4908680;28;121354;-79
2023/08/27 00:17:21;;;;;;;;;;;;;;;;;;4898902;28;121136;-80
2023/08/27 00:19:47;;;;;;;;;;;;;;;;;;4905967;28;94483;-79
2023/08/27 00:22:13;;;;;;;;;;;;;;;;;;4920280;28;121343;-80
2023/08/27 00:24:40;;;;;;;;;;;;;;;;;;4916008;28;121253;-80
2023/08/27 00:27:06;;;;;;;;;;;;;;;;;;4902049;28;122574;-80
2023/08/27 00:29:33;;;;;;;;;;;;;;;;;;4905712;28;101183;-80
2023/08/27 00:31:59;;;;;;;;;;;;;;;;;;4917881;28;122342;-80
2023/08/27 00:34:29;;;;;;;;;;;;;;;;;;4895980;28;111912;-80
2023/08/27 00:36:55;;;;;;;;;;;;;;;;;;4885387;28;95227;-80
2023/08/27 00:39:22;;;;;;;;;;;;;;;;;;4892913;28;120280;-80
2023/08/27 00:41:48;;;;;;;;;;;;;;;;;;4911281;28;113492;-79
2023/08/27 00:44:15;;;;;;;;;;;;;;;;;;4912386;28;94456;-80
2023/08/27 00:46:41;;;;;;;;;;;;;;;;;;4879159;28;124749;-80
2023/08/27 00:49:07;;;;;;;;;;;;;;;;;;4878695;28;110655;-80
2023/08/27 00:51:34;;;;;;;;;;;;;;;;;;4883967;28;94417;-80
2023/08/27 00:54:00;;;;;;;;;;;;;;;;;;4901368;28;93909;-80
2023/08/27 00:56:26;;;;;;;;;;;;;;;;;;4897445;28;121092;-80
2023/08/27 00:58:53;;;;;;;;;;;;;;;;;;4902918;28;119588;-80
2023/08/27 01:01:20;;;;;;;;;;;;;;;;;;4896279;28;97675;-80
2023/08/27 01:03:46;;;;;;;;;;;;;;;;;;4918732;28;120200;-80
2023/08/27 01:06:13;;;;;;;;;;;;;;;;;;4917608;28;100876;-80
2023/08/27 01:08:39;;;;;;;;;;;;;;;;;;4899205;28;121924;-80
2023/08/27 01:11:05;;;;;;;;;;;;;;;;;;4898568;28;123063;-80
2023/08/27 01:13:32;;;;;;;;;;;;;;;;;;4886387;28;92555;-80
2023/08/27 01:15:58;;;;;;;;;;;;;;;;;;4902574;28;123007;-80
2023/08/27 01:18:25;;;;;;;;;;;;;;;;;;4901832;28;95751;-80
2023/08/27 01:20:52;;;;;;;;;;;;;;;;;;4897772;28;103225;-80
2023/08/27 01:23:18;;;;;;;;;;;;;;;;;;4897973;28;92459;-80
2023/08/27 01:25:44;;;;;;;;;;;;;;;;;;4897427;28;122379;-81
2023/08/27 01:28:11;;;;;;;;;;;;;;;;;;4892552;28;107009;-81
2023/08/27 01:30:37;;;;;;;;;;;;;;;;;;4893771;28;121295;-80
2023/08/27 01:33:03;;;;;;;;;;;;;;;;;;4900600;28;123100;-80
2023/08/27 01:35:30;;;;;;;;;;;;;;;;;;4898817;28;119555;-80
2023/08/27 01:37:56;;;;;;;;;;;;;;;;;;4901424;28;113934;-80
2023/08/27 01:40:23;;;;;;;;;;;;;;;;;;4889708;28;94982;-80
2023/08/27 01:42:49;;;;;;;;;;;;;;;;;;4879540;28;122400;-80
2023/08/27 01:45:17;;;;;;;;;;;;;;;;;;4900667;28;120135;-80
2023/08/27 01:47:44;;;;;;;;;;;;;;;;;;4917976;28;123100;-80
2023/08/27 01:50:11;;;;;;;;;;;;;;;;;;4912874;28;94040;-80
2023/08/27 01:52:37;;;;;;;;;;;;;;;;;;4890664;28;107407;-80
2023/08/27 01:55:04;;;;;;;;;;;;;;;;;;4902059;28;121241;-80
2023/08/27 01:57:31;;;;;;;;;;;;;;;;;;4918514;28;92883;-80
2023/08/27 01:59:57;;;;;;;;;;;;;;;;;;4903362;28;111727;-80
2023/08/27 02:02:24;;;;;;;;;;;;;;;;;;4913217;28;92689;-80
2023/08/27 02:04:51;;;;;;;;;;;;;;;;;;4902707;28;95175;-79
2023/08/27 02:07:17;;;;;;;;;;;;;;;;;;4898250;28;93233;-80
2023/08/27 02:09:44;;;;;;;;;;;;;;;;;;4873676;28;92370;-80
2023/08/27 02:12:10;;;;;;;;;;;;;;;;;;4912641;28;121298;-80
2023/08/27 02:14:38;;;;;;;;;;;;;;;;;;4893758;28;123805;-80
2023/08/27 02:17:04;;;;;;;;;;;;;;;;;;4907188;28;121061;-80
2023/08/27 02:19:31;;;;;;;;;;;;;;;;;;4885217;28;122131;-80
2023/08/27 02:21:57;;;;;;;;;;;;;;;;;;4903705;28;94320;-81
2023/08/27 02:24:24;;;;;;;;;;;;;;;;;;4883375;28;122024;-79
2023/08/27 02:26:50;;;;;;;;;;;;;;;;;;4895518;28;100206;-79
2023/08/27 02:29:17;;;;;;;;;;;;;;;;;;4893917;28;117714;-79
2023/08/27 02:31:43;;;;;;;;;;;;;;;;;;4890895;28;114466;-79
2023/08/27 02:34:09;;;;;;;;;;;;;;;;;;4905382;28;95730;-79
2023/08/27 02:36:36;;;;;;;;;;;;;;;;;;4891066;28;121143;-79
2023/08/27 02:39:02;;;;;;;;;;;;;;;;;;4906866;28;94860;-79
2023/08/27 02:41:28;;;;;;;;;;;;;;;;;;4891797;28;124951;-79
2023/08/27 02:43:55;;;;;;;;;;;;;;;;;;4896011;28;123220;-80
2023/08/27 02:46:21;;;;;;;;;;;;;;;;;;4912624;28;123279;-80
2023/08/27 02:48:48;;;;;;;;;;;;;;;;;;4896460;28;106316;-80
2023/08/27 02:51:14;;;;;;;;;;;;;;;;;;4914461;28;119531;-80
2023/08/27 02:53:40;;;;;;;;;;;;;;;;;;4899577;28;108483;-80
2023/08/27 02:56:08;;;;;;;;;;;;;;;;;;4894566;28;94374;-80
2023/08/27 02:58:34;;;;;;;;;;;;;;;;;;4904204;28;123685;-80
2023/08/27 03:01:01;;;;;;;;;;;;;;;;;;4903247;28;95986;-80
2023/08/27 03:03:27;;;;;;;;;;;;;;;;;;4898786;28;123986;-81
2023/08/27 03:05:54;;;;;;;;;;;;;;;;;;4907184;28;118522;-80
2023/08/27 03:08:20;;;;;;;;;;;;;;;;;;4924694;28;94161;-80
2023/08/27 03:10:47;;;;;;;;;;;;;;;;;;4906122;28;119522;-80
2023/08/27 03:13:13;;;;;;;;;;;;;;;;;;4894170;28;116045;-80
2023/08/27 03:15:40;;;;;;;;;;;;;;;;;;4908977;28;105250;-80
2023/08/27 03:18:06;;;;;;;;;;;;;;;;;;4896669;28;106101;-80
2023/08/27 03:20:32;;;;;;;;;;;;;;;;;;4899928;28;120454;-81
2023/08/27 03:22:59;;;;;;;;;;;;;;;;;;4902624;28;92961;-80
2023/08/27 03:25:26;;;;;;;;;;;;;;;;;;4909366;28;120838;-80
2023/08/27 03:27:52;;;;;;;;;;;;;;;;;;4901475;28;122893;-80
2023/08/27 03:30:18;;;;;;;;;;;;;;;;;;4895823;28;96080;-80
2023/08/27 03:32:45;;;;;;;;;;;;;;;;;;4900786;28;96196;-80
2023/08/27 03:35:12;;;;;;;;;;;;;;;;;;4894635;28;92906;-79
2023/08/27 03:37:38;;;;;;;;;;;;;;;;;;4900868;28;95178;-80
2023/08/27 03:40:04;;;;;;;;;;;;;;;;;;4901048;28;108574;-80
2023/08/27 03:42:31;;;;;;;;;;;;;;;;;;4899416;28;117477;-80
2023/08/27 03:44:57;;;;;;;;;;;;;;;;;;4899206;28;92008;-80
2023/08/27 03:47:24;;;;;;;;;;;;;;;;;;4887238;28;93975;-80
2023/08/27 03:49:51;;;;;;;;;;;;;;;;;;4899142;28;94439;-80
2023/08/27 03:52:17;;;;;;;;;;;;;;;;;;4899888;28;97796;-81
2023/08/27 03:54:43;;;;;;;;;;;;;;;;;;4912842;28;109601;-81
2023/08/27 03:57:10;;;;;;;;;;;;;;;;;;4916519;28;104279;-80
2023/08/27 03:59:38;;;;;;;;;;;;;;;;;;4916471;28;113752;-80
2023/08/27 04:02:04;;;;;;;;;;;;;;;;;;4888424;28;103784;-80
2023/08/27 04:04:32;;;;;;;;;;;;;;;;;;4898666;28;120402;-80
2023/08/27 04:06:59;;;;;;;;;;;;;;;;;;4894813;28;120607;-80
2023/08/27 04:09:26;;;;;;;;;;;;;;;;;;4902510;28;92732;-80
2023/08/27 04:11:52;;;;;;;;;;;;;;;;;;4899714;28;94749;-81
2023/08/27 04:14:19;;;;;;;;;;;;;;;;;;4899472;28;123793;-81
2023/08/27 04:16:45;;;;;;;;;;;;;;;;;;4898986;28;121896;-81
2023/08/27 04:19:11;;;;;;;;;;;;;;;;;;4897394;28;94373;-81
2023/08/27 04:21:38;;;;;;;;;;;;;;;;;;4894081;28;121333;-81
2023/08/27 04:24:04;;;;;;;;;;;;;;;;;;4923073;28;108964;-81
2023/08/27 04:26:30;;;;;;;;;;;;;;;;;;4899268;28;124143;-81
2023/08/27 04:28:57;;;;;;;;;;;;;;;;;;4920627;28;118337;-80
2023/08/27 04:31:23;;;;;;;;;;;;;;;;;;4891696;28;122230;-80
2023/08/27 04:33:50;;;;;;;;;;;;;;;;;;4896894;28;121130;-80
2023/08/27 04:36:18;;;;;;;;;;;;;;;;;;4889904;28;93919;-81
2023/08/27 04:38:44;;;;;;;;;;;;;;;;;;4910981;28;105607;-80
2023/08/27 04:41:10;;;;;;;;;;;;;;;;;;4884877;28;124881;-80
2023/08/27 04:43:37;;;;;;;;;;;;;;;;;;4916683;28;124600;-81
2023/08/27 04:46:04;;;;;;;;;;;;;;;;;;4912893;28;119121;-80
2023/08/27 04:48:31;;;;;;;;;;;;;;;;;;4886120;28;123406;-80
2023/08/27 04:50:58;;;;;;;;;;;;;;;;;;4874666;28;94294;-80
2023/08/27 04:53:26;;;;;;;;;;;;;;;;;;4897902;28;121504;-81
2023/08/27 04:55:53;;;;;;;;;;;;;;;;;;4902029;28;110645;-80
2023/08/27 04:58:21;;;;;;;;;;;;;;;;;;4898835;28;93930;-80
2023/08/27 05:00:49;;;;;;;;;;;;;;;;;;4890108;28;92381;-80
2023/08/27 05:03:15;;;;;;;;;;;;;;;;;;4893284;28;100599;-80
2023/08/27 05:05:44;;;;;;;;;;;;;;;;;;4895319;28;98155;-80
2023/08/27 05:08:10;;;;;;;;;;;;;;;;;;4894187;28;121930;-80
2023/08/27 05:10:36;;;;;;;;;;;;;;;;;;4898926;28;92759;-80
2023/08/27 05:13:03;;;;;;;;;;;;;;;;;;4897397;28;122787;-80
2023/08/27 05:15:32;;;;;;;;;;;;;;;;;;4895868;28;94039;-81
2023/08/27 05:17:58;;;;;;;;;;;;;;;;;;4898521;28;94899;-80
2023/08/27 05:20:25;;;;;;;;;;;;;;;;;;4899156;28;95893;-81
2023/08/27 05:22:51;;;;;;;;;;;;;;;;;;4897927;28;119986;-80
2023/08/27 05:25:18;;;;;;;;;;;;;;;;;;4881690;28;108757;-81
2023/08/27 05:27:44;;;;;;;;;;;;;;;;;;4890880;28;112889;-80
2023/08/27 05:30:11;;;;;;;;;;;;;;;;;;4881509;28;94817;-81
2023/08/27 05:32:39;;;;;;;;;;;;;;;;;;4897200;28;117942;-81
2023/08/27 05:35:07;;;;;;;;;;;;;;;;;;4899885;28;95149;-81
2023/08/27 05:37:34;;;;;;;;;;;;;;;;;;4900469;28;92881;-79
2023/08/27 05:40:00;;;;;;;;;;;;;;;;;;4897827;28;122119;-80
2023/08/27 05:42:26;;;;;;;;;;;;;;;;;;4899090;28;104033;-80
2023/08/27 05:44:53;;;;;;;;;;;;;;;;;;4880983;28;95309;-83
2023/08/27 05:47:20;;;;;;;;;;;;;;;;;;4889301;28;122408;-80
2023/08/27 05:49:46;;;;;;;;;;;;;;;;;;4897345;28;122843;-80
2023/08/27 05:52:13;;;;;;;;;;;;;;;;;;4895394;28;116031;-80
2023/08/27 05:54:39;;;;;;;;;;;;;;;;;;4898592;28;94850;-80
2023/08/27 05:57:06;;;;;;;;;;;;;;;;;;4896686;28;104342;-81
2023/08/27 05:59:33;;;;;;;;;;;;;;;;;;4887033;28;94531;-81
2023/08/27 06:01:59;;;;;;;;;;;;;;;;;;4899536;28;92299;-80
2023/08/27 06:04:27;;;;;;;;;;;;;;;;;;4898095;28;92484;-81
2023/08/27 06:06:53;;;;;;;;;;;;;;;;;;4896192;28;105159;-80
2023/08/27 06:09:20;;;;;;;;;;;;;;;;;;4894891;28;119301;-81
2023/08/27 06:11:47;;;;;;;;;;;;;;;;;;4895816;28;94128;-80
2023/08/27 06:14:13;;;;;;;;;;;;;;;;;;4895449;28;93593;-80
2023/08/27 06:16:40;;;;;;;;;;;;;;;;;;4885800;28;94780;-80
2023/08/27 06:19:06;;;;;;;;;;;;;;;;;;4877889;28;125507;-81
2023/08/27 06:21:33;;;;;;;;;;;;;;;;;;4881073;28;97637;-80
2023/08/27 06:23:59;;;;;;;;;;;;;;;;;;4881172;28;102230;-81
2023/08/27 06:26:26;;;;;;;;;;;;;;;;;;4888962;28;92550;-81
2023/08/27 06:28:52;;;;;;;;;;;;;;;;;;4892739;28;93446;-81
2023/08/27 06:31:19;;;;;;;;;;;;;;;;;;4892093;28;120393;-82
2023/08/27 06:33:46;;;;;;;;;;;;;;;;;;4879727;28;93063;-80
2023/08/27 06:36:12;;;;;;;;;;;;;;;;;;4885673;28;97743;-81
2023/08/27 06:38:39;;;;;;;;;;;;;;;;;;4879135;28;123522;-81
2023/08/27 06:41:05;;;;;;;;;;;;;;;;;;4903614;28;92524;-81
2023/08/27 06:43:32;;;;;;;;;;;;;;;;;;4893891;28;95691;-81
2023/08/27 06:45:58;;;;;;;;;;;;;;;;;;4897836;28;107650;-82
2023/08/27 06:48:25;;;;;;;;;;;;;;;;;;4899544;28;121127;-81
2023/08/27 06:50:51;;;;;;;;;;;;;;;;;;4909139;28;94017;-82
2023/08/27 06:53:19;;;;;;;;;;;;;;;;;;4885069;28;94988;-81
2023/08/27 06:55:45;;;;;;;;;;;;;;;;;;4889788;28;93581;-82
2023/08/27 06:58:12;;;;;;;;;;;;;;;;;;4890299;28;121551;-81
2023/08/27 07:00:39;;;;;;;;;;;;;;;;;;4901631;28;95639;-88
2023/08/27 07:03:06;;;;;;;;;;;;;;;;;;4896885;28;93864;-86
2023/08/27 07:05:33;;;;;;;;;;;;;;;;;;4896434;28;120209;-86
2023/08/27 07:08:00;;;;;;;;;;;;;;;;;;4891879;28;95261;-86
2023/08/27 07:10:27;;;;;;;;;;;;;;;;;;4894703;28;120830;-88
2023/08/27 07:12:53;;;;;;;;;;;;;;;;;;4892570;28;119947;-88
2023/08/27 07:15:19;;;;;;;;;;;;;;;;;;4894792;28;123301;-88
2023/08/27 07:17:46;;;;;;;;;;;;;;;;;;4888532;28;94411;-87
2023/08/27 07:20:13;;;;;;;;;;;;;;;;;;4902817;28;100140;-88
2023/08/27 07:22:39;;;;;;;;;;;;;;;;;;4895690;28;114720;-88
2023/08/27 07:25:06;;;;;;;;;;;;;;;;;;4885307;28;94852;-87
2023/08/27 07:27:33;;;;;;;;;;;;;;;;;;4895156;28;93428;-85
2023/08/27 07:30:00;;;;;;;;;;;;;;;;;;4865598;28;94822;-86
2023/08/27 07:32:27;;;;;;;;;;;;;;;;;;4889662;28;96207;-85
2023/08/27 07:34:53;;;;;;;;;;;;;;;;;;4893540;28;101348;-86
2023/08/27 07:37:21;;;;;;;;;;;;;;;;;;4872440;28;95387;-84
2023/08/27 07:39:48;;;;;;;;;;;;;;;;;;4907458;28;96620;-83
2023/08/27 07:42:14;;;;;;;;;;;;;;;;;;4892928;28;93837;-85
2023/08/27 07:44:41;;;;;;;;;;;;;;;;;;4902777;28;94796;-85
2023/08/27 07:47:07;;;;;;;;;;;;;;;;;;4904544;28;93805;-84
2023/08/27 07:49:34;;;;;;;;;;;;;;;;;;4898450;28;120662;-85
2023/08/27 07:52:02;;;;;;;;;;;;;;;;;;4893340;28;92413;-84
2023/08/27 07:54:28;;;;;;;;;;;;;;;;;;4904719;28;92452;-84
2023/08/27 07:56:56;;;;;;;;;;;;;;;;;;4872399;28;96410;-84
2023/08/27 07:59:23;;;;;;;;;;;;;;;;;;4890347;28;93021;-80
2023/08/27 08:01:49;;;;;;;;;;;;;;;;;;4892996;28;122181;-80
2023/08/27 08:04:16;;;;;;;;;;;;;;;;;;4896030;28;92459;-82
2023/08/27 08:06:42;;;;;;;;;;;;;;;;;;4902810;28;108203;-81
2023/08/27 08:09:09;;;;;;;;;;;;;;;;;;4900484;28;120555;-81
2023/08/27 08:11:35;;;;;;;;;;;;;;;;;;4897500;28;122431;-81
2023/08/27 08:14:02;;;;;;;;;;;;;;;;;;4900320;28;117759;-82
2023/08/27 08:16:28;;;;;;;;;;;;;;;;;;4900631;28;106279;-83
2023/08/27 08:18:55;;;;;;;;;;;;;;;;;;4888288;28;121027;-82
2023/08/27 08:21:21;;;;;;;;;;;;;;;;;;4898770;28;94681;-82
2023/08/27 08:23:48;;;;;;;;;;;;;;;;;;4900739;28;100685;-84
2023/08/27 08:26:14;;;;;;;;;;;;;;;;;;4883828;28;95809;-83
2023/08/27 08:28:40;;;;;;;;;;;;;;;;;;4884698;28;120782;-84
2023/08/27 08:31:07;;;;;;;;;;;;;;;;;;4899180;28;120187;-83
2023/08/27 08:33:33;;;;;;;;;;;;;;;;;;4900363;28;95058;-83
2023/08/27 08:36:00;;;;;;;;;;;;;;;;;;4888249;28;101923;-84
2023/08/27 08:38:26;;;;;;;;;;;;;;;;;;4903676;28;118115;-83
2023/08/27 08:40:53;;;;;;;;;;;;;;;;;;4905495;28;121026;-82
2023/08/27 08:43:19;;;;;;;;;;;;;;;;;;4902214;28;115811;-82
2023/08/27 08:45:46;;;;;;;;;;;;;;;;;;4899044;28;122354;-83
2023/08/27 08:48:12;;;;;;;;;;;;;;;;;;4899552;28;125643;-83
2023/08/27 08:50:39;;;;;;;;;;;;;;;;;;4889714;28;94296;-83
2023/08/27 08:53:05;;;;;;;;;;;;;;;;;;4895841;28;120258;-82
2023/08/27 08:55:31;;;;;;;;;;;;;;;;;;4900785;28;118048;-82
2023/08/27 08:57:58;;;;;;;;;;;;;;;;;;4915308;28;92646;-83
2023/08/27 09:00:24;;;;;;;;;;;;;;;;;;4919581;28;120637;-83
2023/08/27 09:02:51;;;;;;;;;;;;;;;;;;4895865;28;93384;-83
2023/08/27 09:05:17;;;;;;;;;;;;;;;;;;4919549;28;122405;-83
2023/08/27 09:07:44;;;;;;;;;;;;;;;;;;4904008;28;120690;-83
2023/08/27 09:10:10;;;;;;;;;;;;;;;;;;4903450;28;108615;-82
2023/08/27 09:12:39;;;;;;;;;;;;;;;;;;4915549;28;92500;-84
2023/08/27 09:15:06;;;;;;;;;;;;;;;;;;4897727;28;122704;-83
2023/08/27 09:17:32;;;;;;;;;;;;;;;;;;4920490;28;96265;-83
2023/08/27 09:19:58;;;;;;;;;;;;;;;;;;4918949;28;120477;-83
2023/08/27 09:22:25;;;;;;;;;;;;;;;;;;4917388;28;103023;-83
2023/08/27 09:24:52;;;;;;;;;;;;;;;;;;4908586;28;120945;-82
2023/08/27 09:27:18;;;;;;;;;;;;;;;;;;4903385;28;94198;-82
2023/08/27 09:29:44;;;;;;;;;;;;;;;;;;4921968;28;104019;-82
2023/08/27 09:32:12;;;;;;;;;;;;;;;;;;4905294;28;121094;-81
2023/08/27 09:34:39;;;;;;;;;;;;;;;;;;4895253;28;126115;-81
2023/08/27 09:37:05;;;;;;;;;;;;;;;;;;4912589;28;121081;-81
2023/08/27 09:39:32;;;;;;;;;;;;;;;;;;4903464;28;114184;-82
2023/08/27 09:41:58;;;;;;;;;;;;;;;;;;4903252;28;94238;-82
2023/08/27 09:44:25;;;;;;;;;;;;;;;;;;4895062;28;94797;-81
2023/08/27 09:46:51;;;;;;;;;;;;;;;;;;4899653;28;106408;-81
2023/08/27 09:49:17;;;;;;;;;;;;;;;;;;4923800;28;121095;-81
2023/08/27 09:51:44;;;;;;;;;;;;;;;;;;4879134;28;118134;-81
2023/08/27 09:54:10;;;;;;;;;;;;;;;;;;4916398;28;113296;-82
2023/08/27 09:56:36;;;;;;;;;;;;;;;;;;4925822;28;103620;-81
2023/08/27 09:59:03;;;;;;;;;;;;;;;;;;4906843;28;120493;-81
2023/08/27 10:01:29;;;;;;;;;;;;;;;;;;4899847;28;122052;-81
2023/08/27 10:03:56;;;;;;;;;;;;;;;;;;4918754;28;121018;-81
2023/08/27 10:06:22;;;;;;;;;;;;;;;;;;4895952;28;123615;-81
2023/08/27 10:08:48;;;;;;;;;;;;;;;;;;4884279;28;123746;-81
2023/08/27 10:11:16;;;;;;;;;;;;;;;;;;4893020;28;120935;-81
2023/08/27 10:13:42;;;;;;;;;;;;;;;;;;4917291;28;113070;-81
2023/08/27 10:16:09;;;;;;;;;;;;;;;;;;4886269;28;115120;-81
2023/08/27 10:18:35;;;;;;;;;;;;;;;;;;4908326;28;120028;-81
2023/08/27 10:21:02;;;;;;;;;;;;;;;;;;4895021;28;123785;-81
2023/08/27 10:23:30;;;;;;;;;;;;;;;;;;4912894;28;118438;-81
2023/08/27 10:25:57;;;;;;;;;;;;;;;;;;4898088;28;123680;-81
2023/08/27 10:28:23;;;;;;;;;;;;;;;;;;4893439;28;125234;-81
2023/08/27 10:30:49;;;;;;;;;;;;;;;;;;4909132;28;92970;-82
2023/08/27 10:33:17;;;;;;;;;;;;;;;;;;4923288;28;120464;-82
2023/08/27 10:35:43;;;;;;;;;;;;;;;;;;4916474;28;113274;-82
2023/08/27 10:38:10;;;;;;;;;;;;;;;;;;4920425;28;122704;-82
2023/08/27 10:40:37;;;;;;;;;;;;;;;;;;4910209;28;122004;-82
2023/08/27 10:43:03;;;;;;;;;;;;;;;;;;4916200;28;92531;-81
2023/08/27 10:45:29;;;;;;;;;;;;;;;;;;4919941;28;115833;-81
2023/08/27 10:47:56;;;;;;;;;;;;;;;;;;4886399;28;118340;-81
2023/08/27 10:50:22;;;;;;;;;;;;;;;;;;4899960;28;113326;-81
2023/08/27 10:52:49;;;;;;;;;;;;;;;;;;4918657;28;119753;-81
2023/08/27 10:55:16;;;;;;;;;;;;;;;;;;4901530;28;119113;-81
2023/08/27 10:57:42;;;;;;;;;;;;;;;;;;4897183;28;107750;-80
2023/08/27 11:00:10;;;;;;;;;;;;;;;;;;4917248;28;122373;-81
2023/08/27 11:02:36;;;;;;;;;;;;;;;;;;4903190;28;121290;-80
2023/08/27 11:05:04;;;;;;;;;;;;;;;;;;4896710;28;94467;-81
2023/08/27 11:07:30;;;;;;;;;;;;;;;;;;4883149;28;121398;-81
2023/08/27 11:09:58;;;;;;;;;;;;;;;;;;4889778;28;94160;-81
2023/08/27 11:12:24;;;;;;;;;;;;;;;;;;4895955;28;97327;-80
2023/08/27 11:14:51;;;;;;;;;;;;;;;;;;4904881;28;120983;-80
2023/08/27 11:17:17;;;;;;;;;;;;;;;;;;4918969;28;119448;-80
2023/08/27 11:19:43;;;;;;;;;;;;;;;;;;4912031;28;119661;-80
2023/08/27 11:22:10;;;;;;;;;;;;;;;;;;4886580;28;95600;-81
2023/08/27 11:24:38;;;;;;;;;;;;;;;;;;4901557;28;121459;-80
2023/08/27 11:27:05;;;;;;;;;;;;;;;;;;4912144;28;123138;-80
2023/08/27 11:29:31;;;;;;;;;;;;;;;;;;4919117;28;120805;-79
2023/08/27 11:32:00;;;;;;;;;;;;;;;;;;4895848;28;92680;-80
2023/08/27 11:34:26;;;;;;;;;;;;;;;;;;4888597;28;117751;-80
2023/08/27 11:36:54;;;;;;;;;;;;;;;;;;4890303;28;97705;-79
2023/08/27 11:39:21;;;;;;;;;;;;;;;;;;4889012;28;99526;-80
2023/08/27 11:41:47;;;;;;;;;;;;;;;;;;4896312;28;122823;-80
2023/08/27 11:44:13;;;;;;;;;;;;;;;;;;4923750;28;119652;-81
2023/08/27 11:46:41;;;;;;;;;;;;;;;;;;4927836;28;120709;-80
2023/08/27 11:49:08;;;;;;;;;;;;;;;;;;4926911;28;117993;-80
2023/08/27 11:51:34;;;;;;;;;;;;;;;;;;4926342;28;93408;-80
2023/08/27 11:54:01;;;;;;;;;;;;;;;;;;4917461;28;95383;-80
2023/08/27 11:56:28;;;;;;;;;;;;;;;;;;4918154;28;100034;-81
2023/08/27 11:58:54;;;;;;;;;;;;;;;;;;4921302;28;120508;-80
2023/08/27 12:01:21;;;;;;;;;;;;;;;;;;4912973;28;125110;-80
2023/08/27 12:03:48;;;;;;;;;;;;;;;;;;4917275;28;123700;-82
2023/08/27 12:06:15;;;;;;;;;;;;;;;;;;4903652;28;117597;-81
2023/08/27 12:08:41;;;;;;;;;;;;;;;;;;4898207;28;99492;-81
2023/08/27 12:11:08;;;;;;;;;;;;;;;;;;4907924;28;121005;-80
2023/08/27 12:13:34;;;;;;;;;;;;;;;;;;4920879;28;122498;-81
2023/08/27 12:16:03;;;;;;;;;;;;;;;;;;4897875;28;122461;-80
2023/08/27 12:18:32;;;;;;;;;;;;;;;;;;4901999;28;121054;-81
2023/08/27 12:20:58;;;;;;;;;;;;;;;;;;4918967;28;106952;-80
2023/08/27 12:23:25;;;;;;;;;;;;;;;;;;4918990;28;122076;-81
2023/08/27 12:25:56;;;;;;;;;;;;;;;;;;4921846;28;94736;-80
2023/08/27 12:28:23;;;;;;;;;;;;;;;;;;4918123;28;122445;-81
2023/08/27 12:30:49;;;;;;;;;;;;;;;;;;4885979;28;123361;-81
2023/08/27 12:33:16;;;;;;;;;;;;;;;;;;4911815;28;121537;-82
2023/08/27 12:35:42;;;;;;;;;;;;;;;;;;4896251;28;98960;-81
2023/08/27 12:38:09;;;;;;;;;;;;;;;;;;4900104;28;120753;-81
2023/08/27 12:40:35;;;;;;;;;;;;;;;;;;4915516;28;122662;-81
2023/08/27 12:43:02;;;;;;;;;;;;;;;;;;4920188;28;116538;-82
2023/08/27 12:45:28;;;;;;;;;;;;;;;;;;4903419;28;93538;-80
2023/08/27 12:47:54;;;;;;;;;;;;;;;;;;4919043;28;121543;-80
2023/08/27 12:50:21;;;;;;;;;;;;;;;;;;4910669;28;119019;-82
2023/08/27 12:52:47;;;;;;;;;;;;;;;;;;4922593;28;121481;-81
2023/08/27 12:55:14;;;;;;;;;;;;;;;;;;4914812;28;120891;-82
2023/08/27 12:57:41;;;;;;;;;;;;;;;;;;4919093;28;120681;-81
2023/08/27 13:00:08;;;;;;;;;;;;;;;;;;4881567;28;126113;-81
2023/08/27 13:02:34;;;;;;;;;;;;;;;;;;4918502;28;94033;-83
2023/08/27 13:05:03;;;;;;;;;;;;;;;;;;4919683;28;121926;-82
2023/08/27 13:07:31;;;;;;;;;;;;;;;;;;4918141;28;121850;-83
2023/08/27 13:09:57;;;;;;;;;;;;;;;;;;4903671;28;92474;-82
2023/08/27 13:12:24;;;;;;;;;;;;;;;;;;4915448;28;123128;-82
2023/08/27 13:14:50;;;;;;;;;;;;;;;;;;4906956;28;121135;-81
2023/08/27 13:17:16;;;;;;;;;;;;;;;;;;4918640;28;123074;-82
2023/08/27 13:19:43;;;;;;;;;;;;;;;;;;4919830;28;122744;-83
2023/08/27 13:22:09;;;;;;;;;;;;;;;;;;4917876;28;121112;-82
2023/08/27 13:24:36;;;;;;;;;;;;;;;;;;4887572;28;92493;-83
2023/08/27 13:27:02;;;;;;;;;;;;;;;;;;4914495;28;122694;-82
2023/08/27 13:29:28;;;;;;;;;;;;;;;;;;4922973;28;92780;-83
2023/08/27 13:31:55;;;;;;;;;;;;;;;;;;4922291;28;120468;-81
2023/08/27 13:34:22;;;;;;;;;;;;;;;;;;4907526;28;93810;-82
2023/08/27 13:36:48;;;;;;;;;;;;;;;;;;4886465;28;123039;-82
2023/08/27 13:39:15;;;;;;;;;;;;;;;;;;4900105;28;122517;-82
2023/08/27 13:41:41;;;;;;;;;;;;;;;;;;4921913;28;92961;-82
2023/08/27 13:44:08;;;;;;;;;;;;;;;;;;4920317;28;120699;-82
2023/08/27 13:46:34;;;;;;;;;;;;;;;;;;4920202;28;117185;-82
2023/08/27 13:49:00;;;;;;;;;;;;;;;;;;4902003;28;121088;-82
2023/08/27 13:51:30;;;;;;;;;;;;;;;;;;4922389;28;97636;-82
2023/08/27 13:53:59;;;;;;;;;;;;;;;;;;4888477;28;125042;-81
2023/08/27 13:56:26;;;;;;;;;;;;;;;;;;4892690;28;120557;-83
2023/08/27 13:58:52;;;;;;;;;;;;;;;;;;4888682;28;121451;-83
2023/08/27 14:01:23;;;;;;;;;;;;;;;;;;4900524;28;121034;-84
2023/08/27 14:03:50;;;;;;;;;;;;;;;;;;4916382;28;120637;-83
2023/08/27 14:06:16;;;;;;;;;;;;;;;;;;4921964;28;121450;-83
2023/08/27 14:08:44;;;;;;;;;;;;;;;;;;4922406;28;97548;-82
2023/08/27 14:11:10;;;;;;;;;;;;;;;;;;4895730;28;119646;-83
2023/08/27 14:13:40;;;;;;;;;;;;;;;;;;4918773;28;119381;-82
2023/08/27 14:16:07;;;;;;;;;;;;;;;;;;4903652;28;93726;-82
2023/08/27 14:18:33;;;;;;;;;;;;;;;;;;4920037;28;109379;-82
2023/08/27 14:20:59;;;;;;;;;;;;;;;;;;4918966;28;121167;-83
2023/08/27 14:23:26;;;;;;;;;;;;;;;;;;4899409;28;118949;-83
2023/08/27 14:25:53;;;;;;;;;;;;;;;;;;4903820;28;116518;-83
2023/08/27 14:28:20;;;;;;;;;;;;;;;;;;4915051;28;119478;-83
2023/08/27 14:30:46;;;;;;;;;;;;;;;;;;4921939;28;124416;-82
2023/08/27 14:33:13;;;;;;;;;;;;;;;;;;4902563;28;92509;-81
2023/08/27 14:35:39;;;;;;;;;;;;;;;;;;4911305;28;92802;-81
2023/08/27 14:38:06;;;;;;;;;;;;;;;;;;4900551;28;93076;-81
2023/08/27 14:40:32;;;;;;;;;;;;;;;;;;4923908;28;122608;-81
2023/08/27 14:42:59;;;;;;;;;;;;;;;;;;4899007;28;124224;-82
2023/08/27 14:45:25;;;;;;;;;;;;;;;;;;4912330;28;120824;-82
2023/08/27 14:47:53;;;;;;;;;;;;;;;;;;4902545;28;93634;-81
2023/08/27 14:50:20;;;;;;;;;;;;;;;;;;4906423;28;111342;-82
2023/08/27 14:52:46;;;;;;;;;;;;;;;;;;4917596;28;123416;-81
2023/08/27 14:55:13;;;;;;;;;;;;;;;;;;4886146;28;102849;-81
2023/08/27 14:57:39;;;;;;;;;;;;;;;;;;4894712;28;121869;-81
2023/08/27 15:00:05;;;;;;;;;;;;;;;;;;4889361;28;92461;-82
2023/08/27 15:02:32;;;;;;;;;;;;;;;;;;4916655;28;121915;-82
2023/08/27 15:04:58;;;;;;;;;;;;;;;;;;4899409;28;112618;-82
2023/08/27 15:07:25;;;;;;;;;;;;;;;;;;4905635;28;114877;-82
2023/08/27 15:09:51;;;;;;;;;;;;;;;;;;4907121;28;122000;-82
2023/08/27 15:12:18;;;;;;;;;;;;;;;;;;4923166;28;121228;-82
2023/08/27 15:14:44;;;;;;;;;;;;;;;;;;4889966;28;121820;-81
2023/08/27 15:17:11;;;;;;;;;;;;;;;;;;4920452;28;104856;-81
2023/08/27 15:19:37;;;;;;;;;;;;;;;;;;4902042;28;107685;-81
2023/08/27 15:22:03;;;;;;;;;;;;;;;;;;4914127;28;120653;-81
2023/08/27 15:24:30;;;;;;;;;;;;;;;;;;4923593;28;112572;-82
2023/08/27 15:26:56;;;;;;;;;;;;;;;;;;4921666;28;117121;-81
2023/08/27 15:29:23;;;;;;;;;;;;;;;;;;4929419;28;92028;-81
2023/08/27 15:31:49;;;;;;;;;;;;;;;;;;4916848;28;121413;-81
2023/08/27 15:34:16;;;;;;;;;;;;;;;;;;4922545;28;120917;-81
2023/08/27 15:36:42;;;;;;;;;;;;;;;;;;4910972;28;121433;-81
2023/08/27 15:39:08;;;;;;;;;;;;;;;;;;4926250;28;93539;-81
2023/08/27 15:41:35;;;;;;;;;;;;;;;;;;4915195;28;120359;-82
2023/08/27 15:44:01;;;;;;;;;;;;;;;;;;4917352;28;110614;-83
2023/08/27 15:46:28;;;;;;;;;;;;;;;;;;4884584;28;92450;-81
2023/08/27 15:48:55;;;;;;;;;;;;;;;;;;4921465;28;121038;-82
2023/08/27 15:51:23;;;;;;;;;;;;;;;;;;4904179;28;121414;-81
2023/08/27 15:53:49;;;;;;;;;;;;;;;;;;4904157;28;122194;-81
2023/08/27 15:56:16;;;;;;;;;;;;;;;;;;4903488;28;123127;-81
2023/08/27 15:58:43;;;;;;;;;;;;;;;;;;4894759;28;92350;-81
2023/08/27 16:01:13;;;;;;;;;;;;;;;;;;4907577;28;95740;-81
2023/08/27 16:03:39;;;;;;;;;;;;;;;;;;4891437;28;102506;-82
2023/08/27 16:06:06;;;;;;;;;;;;;;;;;;4913546;28;94827;-81
2023/08/27 16:08:32;;;;;;;;;;;;;;;;;;4903561;28;93788;-82
2023/08/27 16:10:59;;;;;;;;;;;;;;;;;;4898825;28;121394;-81
2023/08/27 16:13:25;;;;;;;;;;;;;;;;;;4894388;28;95667;-81
2023/08/27 16:15:52;;;;;;;;;;;;;;;;;;4918788;28;92410;-81
2023/08/27 16:18:18;;;;;;;;;;;;;;;;;;4915200;28;121439;-81
2023/08/27 16:20:45;;;;;;;;;;;;;;;;;;4898579;28;94341;-81
2023/08/27 16:23:11;;;;;;;;;;;;;;;;;;4916738;28;119062;-81
2023/08/27 16:25:38;;;;;;;;;;;;;;;;;;4904563;28;124308;-81
2023/08/27 16:28:04;;;;;;;;;;;;;;;;;;4901290;28;92464;-79